sensor_id;sensor_type;location;lat;lon;timestamp;temperature;humidity
52509;DHT22;38420;53.150;6.370;2023-06-22T00:00:27;16.50;99.90
52509;DHT22;38420;53.150;6.370;2023-06-22T00:02:53;17.50;99.90
52509;DHT22;38420;53.150;6.370;2023-06-22T00:05:18;18.10;99.90
52509;DHT22;38420;53.150;6.370;2023-06-22T00:07:44;18.30;99.90
52509;DHT22;38420;53.150;6.370;2023-06-22T00:10:09;16.20;99.90
52509;DHT22;38420;53.150;6.370;2023-06-22T00:12:35;16.90;99.90
52509;DHT22;38420;53.150;6.370;2023-06-22T00:15:00;16.90;99.90
52509;DHT22;38420;53.150;6.370;2023-06-22T00:17:26;16.60;99.90
52509;DHT22;38420;53.150;6.370;2023-06-22T00:19:51;18.20;99.90
52509;DHT22;38420;53.150;6.370;2023-06-22T00:22:19;16.40;99.90
52509;DHT22;38420;53.150;6.370;2023-06-22T00:24:54;16.10;99.90
52509;DHT22;38420;53.150;6.370;2023-06-22T00:27:19;16.30;99.90
52509;DHT22;38420;53.150;6.370;2023-06-22T00:29:44;18.40;99.90
52509;DHT22;38420;53.150;6.370;2023-06-22T00:32:10;17.00;99.90
52509;DHT22;38420;53.150;6.370;2023-06-22T00:34:35;16.20;99.90
52509;DHT22;38420;53.150;6.370;2023-06-22T00:37:01;15.90;99.90
52509;DHT22;38420;53.150;6.370;2023-06-22T00:39:27;16.20;99.90
52509;DHT22;38420;53.150;6.370;2023-06-22T00:41:53;16.30;99.90
52509;DHT22;38420;53.150;6.370;2023-06-22T00:44:18;18.00;99.90
52509;DHT22;38420;53.150;6.370;2023-06-22T00:46:44;17.20;99.90
52509;DHT22;38420;53.150;6.370;2023-06-22T00:49:09;18.00;99.90
52509;DHT22;38420;53.150;6.370;2023-06-22T00:51:35;18.00;99.90
52509;DHT22;38420;53.150;6.370;2023-06-22T00:54:03;16.10;99.90
52509;DHT22;38420;53.150;6.370;2023-06-22T00:56:30;15.70;99.90
52509;DHT22;38420;53.150;6.370;2023-06-22T00:58:56;17.60;99.90
52509;DHT22;38420;53.150;6.370;2023-06-22T01:01:23;16.20;99.90
52509;DHT22;38420;53.150;6.370;2023-06-22T01:03:48;18.00;99.90
52509;DHT22;38420;53.150;6.370;2023-06-22T01:06:18;16.00;99.90
52509;DHT22;38420;53.150;6.370;2023-06-22T01:08:46;17.60;99.90
52509;DHT22;38420;53.150;6.370;2023-06-22T01:11:22;16.20;99.90
52509;DHT22;38420;53.150;6.370;2023-06-22T01:16:26;15.80;99.90
52509;DHT22;38420;53.150;6.370;2023-06-22T01:18:52;16.30;99.90
52509;DHT22;38420;53.150;6.370;2023-06-22T01:21:20;16.10;99.90
52509;DHT22;38420;53.150;6.370;2023-06-22T01:24:07;15.90;99.90
52509;DHT22;38420;53.150;6.370;2023-06-22T01:26:54;15.90;99.90
52509;DHT22;38420;53.150;6.370;2023-06-22T01:29:22;18.10;99.90
52509;DHT22;38420;53.150;6.370;2023-06-22T01:31:49;15.80;99.90
52509;DHT22;38420;53.150;6.370;2023-06-22T01:34:16;15.90;99.90
52509;DHT22;38420;53.150;6.370;2023-06-22T01:36:42;15.90;99.90
52509;DHT22;38420;53.150;6.370;2023-06-22T01:39:08;16.10;99.90
52509;DHT22;38420;53.150;6.370;2023-06-22T01:41:34;17.20;99.90
52509;DHT22;38420;53.150;6.370;2023-06-22T01:44:01;17.30;99.90
52509;DHT22;38420;53.150;6.370;2023-06-22T01:46:28;17.50;99.90
52509;DHT22;38420;53.150;6.370;2023-06-22T01:48:54;15.90;99.90
52509;DHT22;38420;53.150;6.370;2023-06-22T01:51:19;15.70;99.90
52509;DHT22;38420;53.150;6.370;2023-06-22T01:53:45;15.50;99.90
52509;DHT22;38420;53.150;6.370;2023-06-22T01:56:13;16.30;99.90
52509;DHT22;38420;53.150;6.370;2023-06-22T01:58:41;15.50;99.90
52509;DHT22;38420;53.150;6.370;2023-06-22T02:01:11;16.60;99.90
52509;DHT22;38420;53.150;6.370;2023-06-22T02:03:44;18.00;99.90
52509;DHT22;38420;53.150;6.370;2023-06-22T02:06:16;16.80;99.90
52509;DHT22;38420;53.150;6.370;2023-06-22T02:08:46;18.00;99.90
52509;DHT22;38420;53.150;6.370;2023-06-22T02:11:13;17.40;99.90
52509;DHT22;38420;53.150;6.370;2023-06-22T02:13:40;17.60;99.90
52509;DHT22;38420;53.150;6.370;2023-06-22T02:16:11;15.70;99.90
52509;DHT22;38420;53.150;6.370;2023-06-22T02:18:37;16.70;99.90
52509;DHT22;38420;53.150;6.370;2023-06-22T02:21:02;16.50;99.90
52509;DHT22;38420;53.150;6.370;2023-06-22T02:23:28;16.40;99.90
52509;DHT22;38420;53.150;6.370;2023-06-22T02:25:53;16.80;99.90
52509;DHT22;38420;53.150;6.370;2023-06-22T02:28:19;16.60;99.90
52509;DHT22;38420;53.150;6.370;2023-06-22T02:30:44;17.80;99.90
52509;DHT22;38420;53.150;6.370;2023-06-22T02:33:10;17.40;99.90
52509;DHT22;38420;53.150;6.370;2023-06-22T02:35:36;16.20;99.90
52509;DHT22;38420;53.150;6.370;2023-06-22T02:38:02;16.20;99.90
52509;DHT22;38420;53.150;6.370;2023-06-22T02:40:28;16.60;99.90
52509;DHT22;38420;53.150;6.370;2023-06-22T02:42:54;17.70;99.90
52509;DHT22;38420;53.150;6.370;2023-06-22T02:45:20;17.60;99.90
52509;DHT22;38420;53.150;6.370;2023-06-22T02:47:45;17.10;99.90
52509;DHT22;38420;53.150;6.370;2023-06-22T02:50:13;16.40;99.90
52509;DHT22;38420;53.150;6.370;2023-06-22T02:52:38;15.10;99.90
52509;DHT22;38420;53.150;6.370;2023-06-22T02:55:04;17.40;99.90
52509;DHT22;38420;53.150;6.370;2023-06-22T02:57:30;15.10;99.90
52509;DHT22;38420;53.150;6.370;2023-06-22T02:59:56;15.80;99.90
52509;DHT22;38420;53.150;6.370;2023-06-22T03:02:21;16.00;99.90
52509;DHT22;38420;53.150;6.370;2023-06-22T03:04:47;15.90;99.90
52509;DHT22;38420;53.150;6.370;2023-06-22T03:07:14;17.50;99.90
52509;DHT22;38420;53.150;6.370;2023-06-22T03:09:40;16.70;99.90
52509;DHT22;38420;53.150;6.370;2023-06-22T03:12:07;15.20;99.90
52509;DHT22;38420;53.150;6.370;2023-06-22T03:14:33;16.10;99.90
52509;DHT22;38420;53.150;6.370;2023-06-22T03:16:58;15.90;99.90
52509;DHT22;38420;53.150;6.370;2023-06-22T03:19:28;17.60;99.90
52509;DHT22;38420;53.150;6.370;2023-06-22T03:21:55;17.50;99.90
52509;DHT22;38420;53.150;6.370;2023-06-22T03:24:20;17.40;99.90
52509;DHT22;38420;53.150;6.370;2023-06-22T03:26:46;15.10;99.90
52509;DHT22;38420;53.150;6.370;2023-06-22T03:29:12;14.90;99.90
52509;DHT22;38420;53.150;6.370;2023-06-22T03:31:37;15.20;99.90
52509;DHT22;38420;53.150;6.370;2023-06-22T03:34:03;15.40;99.90
52509;DHT22;38420;53.150;6.370;2023-06-22T03:36:28;15.00;99.90
52509;DHT22;38420;53.150;6.370;2023-06-22T03:38:54;17.60;99.90
52509;DHT22;38420;53.150;6.370;2023-06-22T03:41:19;16.40;99.90
52509;DHT22;38420;53.150;6.370;2023-06-22T03:43:45;15.40;99.90
52509;DHT22;38420;53.150;6.370;2023-06-22T03:46:11;15.20;99.90
52509;DHT22;38420;53.150;6.370;2023-06-22T03:48:36;15.10;99.90
52509;DHT22;38420;53.150;6.370;2023-06-22T03:51:02;15.00;99.90
52509;DHT22;38420;53.150;6.370;2023-06-22T03:53:28;17.10;99.90
52509;DHT22;38420;53.150;6.370;2023-06-22T03:55:54;17.60;99.90
52509;DHT22;38420;53.150;6.370;2023-06-22T03:58:20;15.20;99.90
52509;DHT22;38420;53.150;6.370;2023-06-22T04:00:46;16.80;99.90
52509;DHT22;38420;53.150;6.370;2023-06-22T04:03:12;16.80;99.90
52509;DHT22;38420;53.150;6.370;2023-06-22T04:05:38;15.00;99.90
52509;DHT22;38420;53.150;6.370;2023-06-22T04:08:04;17.20;99.90
52509;DHT22;38420;53.150;6.370;2023-06-22T04:10:30;15.60;99.90
52509;DHT22;38420;53.150;6.370;2023-06-22T04:12:55;17.20;99.90
52509;DHT22;38420;53.150;6.370;2023-06-22T04:15:21;16.50;99.90
52509;DHT22;38420;53.150;6.370;2023-06-22T04:17:47;17.30;99.90
52509;DHT22;38420;53.150;6.370;2023-06-22T04:20:12;16.30;99.90
52509;DHT22;38420;53.150;6.370;2023-06-22T04:22:38;16.70;99.90
52509;DHT22;38420;53.150;6.370;2023-06-22T04:25:05;16.00;99.90
52509;DHT22;38420;53.150;6.370;2023-06-22T04:27:30;15.20;99.90
52509;DHT22;38420;53.150;6.370;2023-06-22T04:29:56;17.70;99.90
52509;DHT22;38420;53.150;6.370;2023-06-22T04:32:25;15.80;99.90
52509;DHT22;38420;53.150;6.370;2023-06-22T04:34:51;17.30;99.90
52509;DHT22;38420;53.150;6.370;2023-06-22T04:37:17;15.60;99.90
52509;DHT22;38420;53.150;6.370;2023-06-22T04:39:43;17.50;99.90
52509;DHT22;38420;53.150;6.370;2023-06-22T04:42:08;17.70;99.90
52509;DHT22;38420;53.150;6.370;2023-06-22T04:44:34;16.10;99.90
52509;DHT22;38420;53.150;6.370;2023-06-22T04:47:02;17.70;99.90
52509;DHT22;38420;53.150;6.370;2023-06-22T04:49:34;15.20;99.90
52509;DHT22;38420;53.150;6.370;2023-06-22T04:52:02;17.50;99.90
52509;DHT22;38420;53.150;6.370;2023-06-22T04:54:27;17.10;99.90
52509;DHT22;38420;53.150;6.370;2023-06-22T04:56:53;16.00;99.90
52509;DHT22;38420;53.150;6.370;2023-06-22T04:59:26;17.40;99.90
52509;DHT22;38420;53.150;6.370;2023-06-22T05:01:54;15.60;99.90
52509;DHT22;38420;53.150;6.370;2023-06-22T05:04:20;17.00;99.90
52509;DHT22;38420;53.150;6.370;2023-06-22T05:06:45;15.40;99.90
52509;DHT22;38420;53.150;6.370;2023-06-22T05:09:11;18.00;99.90
52509;DHT22;38420;53.150;6.370;2023-06-22T05:11:37;15.50;99.90
52509;DHT22;38420;53.150;6.370;2023-06-22T05:14:03;18.20;99.90
52509;DHT22;38420;53.150;6.370;2023-06-22T05:16:28;18.30;99.90
52509;DHT22;38420;53.150;6.370;2023-06-22T05:18:54;18.00;99.90
52509;DHT22;38420;53.150;6.370;2023-06-22T05:21:21;15.60;99.90
52509;DHT22;38420;53.150;6.370;2023-06-22T05:23:47;17.00;99.90
52509;DHT22;38420;53.150;6.370;2023-06-22T05:26:12;18.30;99.90
52509;DHT22;38420;53.150;6.370;2023-06-22T05:28:38;18.40;99.90
52509;DHT22;38420;53.150;6.370;2023-06-22T05:31:03;15.70;99.90
52509;DHT22;38420;53.150;6.370;2023-06-22T05:33:29;15.80;99.90
52509;DHT22;38420;53.150;6.370;2023-06-22T05:35:54;15.70;99.90
52509;DHT22;38420;53.150;6.370;2023-06-22T05:38:20;16.00;99.90
52509;DHT22;38420;53.150;6.370;2023-06-22T05:40:45;18.60;99.90
52509;DHT22;38420;53.150;6.370;2023-06-22T05:43:11;15.90;99.90
52509;DHT22;38420;53.150;6.370;2023-06-22T05:45:36;16.10;99.90
52509;DHT22;38420;53.150;6.370;2023-06-22T05:48:02;17.50;99.90
52509;DHT22;38420;53.150;6.370;2023-06-22T05:50:27;18.70;99.90
52509;DHT22;38420;53.150;6.370;2023-06-22T05:52:53;17.00;99.90
52509;DHT22;38420;53.150;6.370;2023-06-22T05:55:18;19.10;99.90
52509;DHT22;38420;53.150;6.370;2023-06-22T05:57:44;18.40;99.90
52509;DHT22;38420;53.150;6.370;2023-06-22T06:00:10;16.80;99.90
52509;DHT22;38420;53.150;6.370;2023-06-22T06:02:36;19.00;99.90
52509;DHT22;38420;53.150;6.370;2023-06-22T06:05:02;17.10;99.90
52509;DHT22;38420;53.150;6.370;2023-06-22T06:07:28;18.00;99.90
52509;DHT22;38420;53.150;6.370;2023-06-22T06:09:54;17.00;99.90
52509;DHT22;38420;53.150;6.370;2023-06-22T06:12:20;19.40;99.90
52509;DHT22;38420;53.150;6.370;2023-06-22T06:14:45;19.60;99.90
52509;DHT22;38420;53.150;6.370;2023-06-22T06:17:12;19.40;99.90
52509;DHT22;38420;53.150;6.370;2023-06-22T06:19:38;19.80;99.90
52509;DHT22;38420;53.150;6.370;2023-06-22T06:22:03;18.40;99.90
52509;DHT22;38420;53.150;6.370;2023-06-22T06:24:29;17.60;99.90
52509;DHT22;38420;53.150;6.370;2023-06-22T06:26:54;17.70;99.90
52509;DHT22;38420;53.150;6.370;2023-06-22T06:29:20;19.70;99.90
52509;DHT22;38420;53.150;6.370;2023-06-22T06:31:46;18.30;99.90
52509;DHT22;38420;53.150;6.370;2023-06-22T06:34:11;18.10;99.90
52509;DHT22;38420;53.150;6.370;2023-06-22T06:36:37;20.10;99.90
52509;DHT22;38420;53.150;6.370;2023-06-22T06:39:03;19.40;99.90
52509;DHT22;38420;53.150;6.370;2023-06-22T06:41:29;19.00;99.90
52509;DHT22;38420;53.150;6.370;2023-06-22T06:43:54;20.40;99.90
52509;DHT22;38420;53.150;6.370;2023-06-22T06:46:20;18.60;99.90
52509;DHT22;38420;53.150;6.370;2023-06-22T06:48:45;20.10;99.90
52509;DHT22;38420;53.150;6.370;2023-06-22T06:51:11;20.40;99.90
52509;DHT22;38420;53.150;6.370;2023-06-22T06:53:37;20.40;99.90
52509;DHT22;38420;53.150;6.370;2023-06-22T06:56:03;20.40;99.90
52509;DHT22;38420;53.150;6.370;2023-06-22T06:58:30;19.40;99.90
52509;DHT22;38420;53.150;6.370;2023-06-22T07:00:56;20.80;99.90
52509;DHT22;38420;53.150;6.370;2023-06-22T07:03:21;19.80;99.90
52509;DHT22;38420;53.150;6.370;2023-06-22T07:05:47;20.00;99.90
52509;DHT22;38420;53.150;6.370;2023-06-22T07:08:13;20.00;99.90
52509;DHT22;38420;53.150;6.370;2023-06-22T07:10:38;20.30;99.90
52509;DHT22;38420;53.150;6.370;2023-06-22T07:13:04;20.20;99.90
52509;DHT22;38420;53.150;6.370;2023-06-22T07:15:30;20.40;99.90
52509;DHT22;38420;53.150;6.370;2023-06-22T07:17:55;21.30;99.90
52509;DHT22;38420;53.150;6.370;2023-06-22T07:20:21;20.70;99.90
52509;DHT22;38420;53.150;6.370;2023-06-22T07:22:46;20.90;99.90
52509;DHT22;38420;53.150;6.370;2023-06-22T07:25:12;20.90;99.90
52509;DHT22;38420;53.150;6.370;2023-06-22T07:27:42;20.90;99.90
52509;DHT22;38420;53.150;6.370;2023-06-22T07:30:09;21.60;99.90
52509;DHT22;38420;53.150;6.370;2023-06-22T07:32:35;21.70;99.90
52509;DHT22;38420;53.150;6.370;2023-06-22T07:35:00;21.70;99.90
52509;DHT22;38420;53.150;6.370;2023-06-22T07:37:27;21.70;99.90
52509;DHT22;38420;53.150;6.370;2023-06-22T07:39:53;21.40;99.90
52509;DHT22;38420;53.150;6.370;2023-06-22T07:42:24;21.60;99.90
52509;DHT22;38420;53.150;6.370;2023-06-22T07:44:49;21.80;99.90
52509;DHT22;38420;53.150;6.370;2023-06-22T07:47:16;22.30;99.90
52509;DHT22;38420;53.150;6.370;2023-06-22T07:49:43;22.80;99.90
52509;DHT22;38420;53.150;6.370;2023-06-22T07:52:08;23.70;99.90
52509;DHT22;38420;53.150;6.370;2023-06-22T07:54:34;24.10;99.90
52509;DHT22;38420;53.150;6.370;2023-06-22T07:56:59;24.30;99.90
52509;DHT22;38420;53.150;6.370;2023-06-22T07:59:25;24.50;99.90
52509;DHT22;38420;53.150;6.370;2023-06-22T08:01:51;24.60;99.90
52509;DHT22;38420;53.150;6.370;2023-06-22T08:04:16;24.70;99.90
52509;DHT22;38420;53.150;6.370;2023-06-22T08:06:42;24.90;99.90
52509;DHT22;38420;53.150;6.370;2023-06-22T08:09:07;25.00;99.90
52509;DHT22;38420;53.150;6.370;2023-06-22T08:11:33;25.30;99.90
52509;DHT22;38420;53.150;6.370;2023-06-22T08:13:59;25.60;99.90
52509;DHT22;38420;53.150;6.370;2023-06-22T08:16:24;25.90;99.90
52509;DHT22;38420;53.150;6.370;2023-06-22T08:18:50;26.20;99.90
52509;DHT22;38420;53.150;6.370;2023-06-22T08:21:16;26.60;99.90
52509;DHT22;38420;53.150;6.370;2023-06-22T08:23:42;26.70;99.90
52509;DHT22;38420;53.150;6.370;2023-06-22T08:26:07;27.30;99.90
52509;DHT22;38420;53.150;6.370;2023-06-22T08:28:33;27.60;99.90
52509;DHT22;38420;53.150;6.370;2023-06-22T08:30:59;27.80;99.90
52509;DHT22;38420;53.150;6.370;2023-06-22T08:33:25;27.90;99.90
52509;DHT22;38420;53.150;6.370;2023-06-22T08:35:57;28.40;99.90
52509;DHT22;38420;53.150;6.370;2023-06-22T08:38:23;28.60;99.90
52509;DHT22;38420;53.150;6.370;2023-06-22T08:40:49;28.70;99.90
52509;DHT22;38420;53.150;6.370;2023-06-22T08:43:14;28.90;99.90
52509;DHT22;38420;53.150;6.370;2023-06-22T08:45:40;29.20;99.90
52509;DHT22;38420;53.150;6.370;2023-06-22T08:48:05;29.40;99.90
52509;DHT22;38420;53.150;6.370;2023-06-22T08:50:31;29.50;99.90
52509;DHT22;38420;53.150;6.370;2023-06-22T08:52:56;29.40;99.90
52509;DHT22;38420;53.150;6.370;2023-06-22T08:55:22;29.40;99.90
52509;DHT22;38420;53.150;6.370;2023-06-22T08:57:47;29.30;99.90
52509;DHT22;38420;53.150;6.370;2023-06-22T09:00:13;29.10;99.90
52509;DHT22;38420;53.150;6.370;2023-06-22T09:02:46;29.10;99.90
52509;DHT22;38420;53.150;6.370;2023-06-22T09:05:12;29.00;99.90
52509;DHT22;38420;53.150;6.370;2023-06-22T09:07:37;28.90;99.90
52509;DHT22;38420;53.150;6.370;2023-06-22T09:10:03;28.90;99.90
52509;DHT22;38420;53.150;6.370;2023-06-22T09:12:31;28.50;99.90
52509;DHT22;38420;53.150;6.370;2023-06-22T09:14:58;28.50;99.90
52509;DHT22;38420;53.150;6.370;2023-06-22T09:17:25;28.20;99.90
52509;DHT22;38420;53.150;6.370;2023-06-22T09:19:51;28.00;99.90
52509;DHT22;38420;53.150;6.370;2023-06-22T09:22:16;27.40;99.90
52509;DHT22;38420;53.150;6.370;2023-06-22T09:24:42;26.90;99.90
52509;DHT22;38420;53.150;6.370;2023-06-22T09:27:07;26.60;99.90
52509;DHT22;38420;53.150;6.370;2023-06-22T09:29:33;26.40;99.90
52509;DHT22;38420;53.150;6.370;2023-06-22T09:31:59;26.40;99.90
52509;DHT22;38420;53.150;6.370;2023-06-22T09:34:25;26.40;99.90
52509;DHT22;38420;53.150;6.370;2023-06-22T09:36:50;26.50;99.90
52509;DHT22;38420;53.150;6.370;2023-06-22T09:39:17;26.40;99.90
52509;DHT22;38420;53.150;6.370;2023-06-22T09:41:42;26.10;99.90
52509;DHT22;38420;53.150;6.370;2023-06-22T09:44:08;25.90;99.90
52509;DHT22;38420;53.150;6.370;2023-06-22T09:46:34;25.90;99.90
52509;DHT22;38420;53.150;6.370;2023-06-22T09:48:59;26.10;99.90
52509;DHT22;38420;53.150;6.370;2023-06-22T09:51:25;26.10;99.90
52509;DHT22;38420;53.150;6.370;2023-06-22T09:53:50;26.20;99.90
52509;DHT22;38420;53.150;6.370;2023-06-22T09:56:16;26.00;99.90
52509;DHT22;38420;53.150;6.370;2023-06-22T09:58:42;25.90;99.90
52509;DHT22;38420;53.150;6.370;2023-06-22T10:01:08;25.80;99.90
52509;DHT22;38420;53.150;6.370;2023-06-22T10:03:33;25.80;99.90
52509;DHT22;38420;53.150;6.370;2023-06-22T10:05:59;25.70;99.90
52509;DHT22;38420;53.150;6.370;2023-06-22T10:08:24;25.60;99.90
52509;DHT22;38420;53.150;6.370;2023-06-22T10:10:50;25.50;99.90
52509;DHT22;38420;53.150;6.370;2023-06-22T10:13:15;25.60;99.90
52509;DHT22;38420;53.150;6.370;2023-06-22T10:15:41;25.50;99.90
52509;DHT22;38420;53.150;6.370;2023-06-22T10:18:07;25.50;99.90
52509;DHT22;38420;53.150;6.370;2023-06-22T10:20:32;25.40;99.90
52509;DHT22;38420;53.150;6.370;2023-06-22T10:22:58;25.50;99.90
52509;DHT22;38420;53.150;6.370;2023-06-22T10:25:24;25.40;99.90
52509;DHT22;38420;53.150;6.370;2023-06-22T10:27:49;25.30;99.90
52509;DHT22;38420;53.150;6.370;2023-06-22T10:30:15;25.40;99.90
52509;DHT22;38420;53.150;6.370;2023-06-22T10:32:41;25.40;99.90
52509;DHT22;38420;53.150;6.370;2023-06-22T10:35:08;25.60;99.90
52509;DHT22;38420;53.150;6.370;2023-06-22T10:37:33;25.70;99.90
52509;DHT22;38420;53.150;6.370;2023-06-22T10:39:59;25.70;99.90
52509;DHT22;38420;53.150;6.370;2023-06-22T10:42:24;25.60;99.90
52509;DHT22;38420;53.150;6.370;2023-06-22T10:44:50;25.80;99.90
52509;DHT22;38420;53.150;6.370;2023-06-22T10:47:16;25.90;99.90
52509;DHT22;38420;53.150;6.370;2023-06-22T10:49:41;25.90;99.90
52509;DHT22;38420;53.150;6.370;2023-06-22T10:52:07;25.90;99.90
52509;DHT22;38420;53.150;6.370;2023-06-22T10:54:33;25.90;99.90
52509;DHT22;38420;53.150;6.370;2023-06-22T10:56:59;26.10;99.90
52509;DHT22;38420;53.150;6.370;2023-06-22T10:59:25;26.10;99.90
52509;DHT22;38420;53.150;6.370;2023-06-22T11:01:51;26.10;99.90
52509;DHT22;38420;53.150;6.370;2023-06-22T11:04:17;26.10;99.90
52509;DHT22;38420;53.150;6.370;2023-06-22T11:06:43;26.00;99.90
52509;DHT22;38420;53.150;6.370;2023-06-22T11:09:08;26.10;99.90
52509;DHT22;38420;53.150;6.370;2023-06-22T11:11:34;26.10;99.90
52509;DHT22;38420;53.150;6.370;2023-06-22T11:14:00;26.20;99.90
52509;DHT22;38420;53.150;6.370;2023-06-22T11:16:25;26.20;99.90
52509;DHT22;38420;53.150;6.370;2023-06-22T11:18:50;26.30;99.90
52509;DHT22;38420;53.150;6.370;2023-06-22T11:21:16;26.40;99.90
52509;DHT22;38420;53.150;6.370;2023-06-22T11:23:42;26.40;99.90
52509;DHT22;38420;53.150;6.370;2023-06-22T11:26:07;26.50;99.90
52509;DHT22;38420;53.150;6.370;2023-06-22T11:28:33;26.50;99.90
52509;DHT22;38420;53.150;6.370;2023-06-22T11:30:58;26.50;99.90
52509;DHT22;38420;53.150;6.370;2023-06-22T11:33:24;26.50;99.90
52509;DHT22;38420;53.150;6.370;2023-06-22T11:35:49;26.40;99.90
52509;DHT22;38420;53.150;6.370;2023-06-22T11:38:15;26.50;99.90
52509;DHT22;38420;53.150;6.370;2023-06-22T11:40:40;26.40;99.90
52509;DHT22;38420;53.150;6.370;2023-06-22T11:43:06;26.40;99.90
52509;DHT22;38420;53.150;6.370;2023-06-22T11:45:31;26.50;99.90
52509;DHT22;38420;53.150;6.370;2023-06-22T11:47:57;26.40;99.90
52509;DHT22;38420;53.150;6.370;2023-06-22T11:50:22;26.40;99.90
52509;DHT22;38420;53.150;6.370;2023-06-22T11:52:48;26.30;99.90
52509;DHT22;38420;53.150;6.370;2023-06-22T11:55:13;26.20;99.90
52509;DHT22;38420;53.150;6.370;2023-06-22T11:57:54;26.10;99.90
52509;DHT22;38420;53.150;6.370;2023-06-22T12:00:19;26.00;99.90
52509;DHT22;38420;53.150;6.370;2023-06-22T12:02:46;26.00;99.90
52509;DHT22;38420;53.150;6.370;2023-06-22T12:05:11;26.00;99.90
52509;DHT22;38420;53.150;6.370;2023-06-22T12:07:37;26.00;99.90
52509;DHT22;38420;53.150;6.370;2023-06-22T12:10:03;26.00;99.90
52509;DHT22;38420;53.150;6.370;2023-06-22T12:12:29;26.00;99.90
52509;DHT22;38420;53.150;6.370;2023-06-22T12:14:54;26.00;99.90
52509;DHT22;38420;53.150;6.370;2023-06-22T12:17:20;26.00;99.90
52509;DHT22;38420;53.150;6.370;2023-06-22T12:19:45;25.90;99.90
52509;DHT22;38420;53.150;6.370;2023-06-22T12:22:11;25.90;99.90
52509;DHT22;38420;53.150;6.370;2023-06-22T12:24:36;25.80;99.90
52509;DHT22;38420;53.150;6.370;2023-06-22T12:27:02;25.70;99.90
52509;DHT22;38420;53.150;6.370;2023-06-22T12:29:28;25.70;99.90
52509;DHT22;38420;53.150;6.370;2023-06-22T12:31:54;25.70;99.90
52509;DHT22;38420;53.150;6.370;2023-06-22T12:34:19;25.60;99.90
52509;DHT22;38420;53.150;6.370;2023-06-22T12:36:45;25.60;99.90
52509;DHT22;38420;53.150;6.370;2023-06-22T12:39:12;25.60;99.90
52509;DHT22;38420;53.150;6.370;2023-06-22T12:41:38;25.60;99.90
52509;DHT22;38420;53.150;6.370;2023-06-22T12:44:03;25.40;99.90
52509;DHT22;38420;53.150;6.370;2023-06-22T12:46:29;25.30;99.90
52509;DHT22;38420;53.150;6.370;2023-06-22T12:49:01;25.20;99.90
52509;DHT22;38420;53.150;6.370;2023-06-22T12:51:26;25.00;99.90
52509;DHT22;38420;53.150;6.370;2023-06-22T12:53:52;25.00;99.90
52509;DHT22;38420;53.150;6.370;2023-06-22T12:56:17;25.00;99.90
52509;DHT22;38420;53.150;6.370;2023-06-22T12:58:43;25.00;99.90
52509;DHT22;38420;53.150;6.370;2023-06-22T13:01:08;24.90;99.90
52509;DHT22;38420;53.150;6.370;2023-06-22T13:03:34;24.80;99.90
52509;DHT22;38420;53.150;6.370;2023-06-22T13:05:59;24.80;99.90
52509;DHT22;38420;53.150;6.370;2023-06-22T13:08:25;24.80;99.90
52509;DHT22;38420;53.150;6.370;2023-06-22T13:10:50;24.60;99.90
52509;DHT22;38420;53.150;6.370;2023-06-22T13:13:16;24.60;99.90
52509;DHT22;38420;53.150;6.370;2023-06-22T13:15:41;24.40;99.90
52509;DHT22;38420;53.150;6.370;2023-06-22T13:18:07;24.40;99.90
52509;DHT22;38420;53.150;6.370;2023-06-22T13:20:32;24.40;99.90
52509;DHT22;38420;53.150;6.370;2023-06-22T13:22:58;24.40;99.90
52509;DHT22;38420;53.150;6.370;2023-06-22T13:25:23;24.30;99.90
52509;DHT22;38420;53.150;6.370;2023-06-22T13:27:51;24.40;99.90
52509;DHT22;38420;53.150;6.370;2023-06-22T13:30:17;24.30;99.90
52509;DHT22;38420;53.150;6.370;2023-06-22T13:32:42;24.20;99.90
52509;DHT22;38420;53.150;6.370;2023-06-22T13:35:09;24.30;99.90
52509;DHT22;38420;53.150;6.370;2023-06-22T13:37:35;24.30;99.90
52509;DHT22;38420;53.150;6.370;2023-06-22T13:40:00;24.10;99.90
52509;DHT22;38420;53.150;6.370;2023-06-22T13:42:28;24.10;99.90
52509;DHT22;38420;53.150;6.370;2023-06-22T13:44:54;24.10;99.90
52509;DHT22;38420;53.150;6.370;2023-06-22T13:47:19;24.00;99.90
52509;DHT22;38420;53.150;6.370;2023-06-22T13:49:45;23.90;99.90
52509;DHT22;38420;53.150;6.370;2023-06-22T13:52:10;23.80;99.90
52509;DHT22;38420;53.150;6.370;2023-06-22T13:54:38;23.80;99.90
52509;DHT22;38420;53.150;6.370;2023-06-22T13:57:03;23.70;99.90
52509;DHT22;38420;53.150;6.370;2023-06-22T13:59:29;23.70;99.90
52509;DHT22;38420;53.150;6.370;2023-06-22T14:01:54;23.60;99.90
52509;DHT22;38420;53.150;6.370;2023-06-22T14:04:21;23.60;99.90
52509;DHT22;38420;53.150;6.370;2023-06-22T14:06:47;23.60;99.90
52509;DHT22;38420;53.150;6.370;2023-06-22T14:09:12;23.40;99.90
52509;DHT22;38420;53.150;6.370;2023-06-22T14:11:38;23.40;99.90
52509;DHT22;38420;53.150;6.370;2023-06-22T14:14:03;23.30;99.90
52509;DHT22;38420;53.150;6.370;2023-06-22T14:16:29;23.30;99.90
52509;DHT22;38420;53.150;6.370;2023-06-22T14:18:54;23.20;99.90
52509;DHT22;38420;53.150;6.370;2023-06-22T14:21:20;23.10;99.90
52509;DHT22;38420;53.150;6.370;2023-06-22T14:23:45;23.10;99.90
52509;DHT22;38420;53.150;6.370;2023-06-22T14:26:17;23.00;99.90
52509;DHT22;38420;53.150;6.370;2023-06-22T14:28:46;23.00;99.90
52509;DHT22;38420;53.150;6.370;2023-06-22T14:31:16;23.00;99.90
52509;DHT22;38420;53.150;6.370;2023-06-22T14:33:48;22.90;99.90
52509;DHT22;38420;53.150;6.370;2023-06-22T14:36:14;22.90;99.90
52509;DHT22;38420;53.150;6.370;2023-06-22T14:38:40;22.80;99.90
52509;DHT22;38420;53.150;6.370;2023-06-22T14:41:06;22.80;99.90
52509;DHT22;38420;53.150;6.370;2023-06-22T14:43:31;22.70;99.90
52509;DHT22;38420;53.150;6.370;2023-06-22T14:45:57;22.60;99.90
52509;DHT22;38420;53.150;6.370;2023-06-22T14:48:22;22.60;99.90
52509;DHT22;38420;53.150;6.370;2023-06-22T14:50:48;22.60;99.90
52509;DHT22;38420;53.150;6.370;2023-06-22T14:53:13;22.60;99.90
52509;DHT22;38420;53.150;6.370;2023-06-22T14:55:39;22.60;99.90
52509;DHT22;38420;53.150;6.370;2023-06-22T14:58:05;22.50;99.90
52509;DHT22;38420;53.150;6.370;2023-06-22T15:00:31;22.50;99.90
52509;DHT22;38420;53.150;6.370;2023-06-22T15:02:56;22.40;99.90
52509;DHT22;38420;53.150;6.370;2023-06-22T15:05:22;22.40;99.90
52509;DHT22;38420;53.150;6.370;2023-06-22T15:07:49;22.40;99.90
52509;DHT22;38420;53.150;6.370;2023-06-22T15:10:15;22.40;99.90
52509;DHT22;38420;53.150;6.370;2023-06-22T15:12:40;22.40;99.90
52509;DHT22;38420;53.150;6.370;2023-06-22T15:15:06;22.30;99.90
52509;DHT22;38420;53.150;6.370;2023-06-22T15:17:32;22.30;99.90
52509;DHT22;38420;53.150;6.370;2023-06-22T15:19:57;22.20;99.90
52509;DHT22;38420;53.150;6.370;2023-06-22T15:22:23;22.10;99.90
52509;DHT22;38420;53.150;6.370;2023-06-22T15:24:48;22.10;99.90